Hub


Voltar

 INFORMAÇÕES METEOROLÓGICAS

METAR FOR CZST


ADDS - METARS form results

(1323 UTC 27 June 2019)
Data provider http://aviationweather.gov/metar/data/
 
METAR text: CZST 271300Z VRB02KT 15SM FEW140 FEW240 11/10 A2996 RMK AC1CI1 AC TR SLP147
Conditions at: CZST (STEWART AIRPORT , BC, CA) observed 1300 UTC 27 June 2019
Temperature: 11.0°C (52°F)
Dewpoint: 10.0°C (50°F) [RH = 94%]
Pressure (altimeter): 29.96 inches Hg (1014.6 mb)
[Sea-level pressure: 1014.7 mb]
Winds: variable direction winds at 2 MPH (2 knots; 1.0 m/s)
Visibility: 15 miles (24 km)
Ceiling: at least 12,000 feet AGL
Clouds: few clouds at 14000 feet AGL
few clouds at 24000 feet AGL
Weather: no significant weather observed at this time


 MAPA DO AEROPORTO


 INFORMAÇÕES DA PISTA

Pista 18 Tamanho da pista 3900 ft Largura da pista 75 ft
Elevação da pista 0 ft Ranhura da pista 0 ft Proa da pista 194
Pista 36 Tamanho da pista 3900 ft Largura da pista 75 ft
Elevação da pista 0 ft Ranhura da pista 0 ft Proa da pista 14

 FREQUÊNCIAS DO AEROPORTO

Tipo ATF Nome ATF Frequência 123.2 MHZ

 AUXÍLIOS DE NAVEGAÇÃO PRÓXIMOS AO AEROPORTO